Time;durP1;ratioP1;P1;durP2;ratioP2;P2;SDS_P1;SDS_P2;PMS_P1;PMS_P2;Temp;Humidity;BMP_temperature;BMP_pressure;BME280_temperature;BME280_humidity;BME280_pressure;Samples;Min_cycle;Max_cycle;Signal;HPM_P1;HPM_P2
2024/03/29 00:01:40;;;;;;;3.88;2.00;;;;;;;7.58;61.46;96651.47;4960503;28;20039;-75
2024/03/29 00:04:05;;;;;;;3.25;1.67;;;;;;;7.58;61.63;96648.78;4940063;29;20034;-76
2024/03/29 00:06:31;;;;;;;3.97;1.70;;;;;;;7.70;61.56;96665.44;4972623;28;20043;-77
2024/03/29 00:08:56;;;;;;;3.70;2.10;;;;;;;7.64;61.52;96640.50;4969946;28;20031;-75
2024/03/29 00:11:21;;;;;;;3.65;2.00;;;;;;;7.73;62.09;96648.00;4943924;28;20038;-76
2024/03/29 00:13:47;;;;;;;3.65;2.40;;;;;;;7.79;61.44;96652.34;4955934;28;20027;-76
2024/03/29 00:16:12;;;;;;;3.08;1.88;;;;;;;7.75;60.90;96649.34;4962017;28;20113;-76
2024/03/29 00:18:38;;;;;;;3.22;2.20;;;;;;;7.73;61.05;96643.47;4965752;28;20050;-76
2024/03/29 00:21:03;;;;;;;4.75;2.80;;;;;;;7.59;60.71;96607.53;4962044;28;20454;-76
2024/03/29 00:23:29;;;;;;;3.67;2.20;;;;;;;7.78;61.11;96635.44;4955247;28;20019;-75
2024/03/29 00:25:58;;;;;;;3.42;2.20;;;;;;;7.57;60.81;96591.72;4984564;28;20041;-76
2024/03/29 00:28:23;;;;;;;4.68;2.20;;;;;;;7.66;61.09;96594.69;4985423;28;20023;-77
2024/03/29 00:30:49;;;;;;;5.88;2.17;;;;;;;7.69;60.79;96618.28;4966191;28;20038;-77
2024/03/29 00:33:14;;;;;;;3.92;2.33;;;;;;;7.74;60.50;96629.00;4940206;29;20055;-77
2024/03/29 00:35:39;;;;;;;4.05;1.70;;;;;;;7.65;60.81;96625.25;4974658;28;20037;-77
2024/03/29 00:38:05;;;;;;;2.67;1.38;;;;;;;7.87;60.28;96649.94;4977066;28;20031;-77
2024/03/29 00:40:30;;;;;;;2.80;1.48;;;;;;;7.65;60.64;96609.16;4943545;28;20466;-77
2024/03/29 00:42:55;;;;;;;3.10;1.63;;;;;;;7.66;60.25;96605.41;4945770;29;20723;-77
2024/03/29 00:45:21;;;;;;;5.57;1.50;;;;;;;7.71;60.57;96626.84;4942028;29;20103;-76
2024/03/29 00:47:46;;;;;;;4.75;1.83;;;;;;;7.67;60.98;96617.75;4964913;28;20211;-76
2024/03/29 00:50:11;;;;;;;2.20;1.70;;;;;;;7.70;61.32;96606.50;4948449;28;20069;-76
2024/03/29 00:52:37;;;;;;;2.40;1.70;;;;;;;7.89;61.97;96637.06;4973869;28;20372;-77
2024/03/29 00:55:03;;;;;;;2.78;1.50;;;;;;;7.59;62.05;96594.94;4965293;28;20116;-77
2024/03/29 00:57:29;;;;;;;2.92;1.40;;;;;;;8.03;61.07;96659.59;4946187;28;20054;-76
2024/03/29 00:59:56;;;;;;;4.10;1.70;;;;;;;7.58;61.79;96565.75;4963833;28;20035;-76
2024/03/29 01:02:22;;;;;;;1.75;1.42;;;;;;;7.68;61.36;96565.75;4944443;28;20050;-76
2024/03/29 01:04:48;;;;;;;2.78;1.30;;;;;;;7.80;61.40;96595.78;4984181;28;20034;-76
2024/03/29 01:07:16;;;;;;;2.50;1.48;;;;;;;7.78;61.69;96581.84;4946322;28;20035;-76
2024/03/29 01:09:41;;;;;;;3.47;1.67;;;;;;;7.73;61.63;96584.53;4980020;28;20050;-75
2024/03/29 01:12:06;;;;;;;2.10;1.40;;;;;;;7.80;61.63;96590.44;4982151;28;20082;-76
2024/03/29 01:14:32;;;;;;;3.05;1.40;;;;;;;7.88;61.67;96592.59;4984860;28;20494;-79
2024/03/29 01:16:57;;;;;;;2.90;1.42;;;;;;;7.67;61.60;96564.16;4949241;28;20105;-77
2024/03/29 01:19:22;;;;;;;2.83;1.80;;;;;;;7.82;61.42;96588.28;4981976;28;20165;-77
2024/03/29 01:21:48;;;;;;;3.03;1.30;;;;;;;7.75;61.66;96577.00;4964127;28;20034;-75
2024/03/29 01:24:13;;;;;;;2.83;1.42;;;;;;;8.04;62.30;96618.34;4984665;28;20062;-76
2024/03/29 01:26:39;;;;;;;2.58;1.60;;;;;;;7.75;62.08;96582.38;4982018;28;20026;-76
2024/03/29 01:29:04;;;;;;;2.30;1.50;;;;;;;7.66;62.05;96557.19;4976132;28;20513;-77
2024/03/29 01:31:29;;;;;;;2.92;1.40;;;;;;;7.72;61.20;96564.16;4951687;28;20520;-76
2024/03/29 01:33:57;;;;;;;1.63;1.30;;;;;;;8.13;61.62;96623.97;4959203;28;20111;-74
2024/03/29 01:36:22;;;;;;;3.75;1.35;;;;;;;8.00;61.75;96606.53;4981862;28;20027;-74
2024/03/29 01:38:49;;;;;;;3.38;1.65;;;;;;;8.18;61.34;96627.47;4981077;28;20045;-74
2024/03/29 01:41:15;;;;;;;1.67;1.30;;;;;;;8.28;62.05;96630.16;4959918;28;20015;-75
2024/03/29 01:43:40;;;;;;;2.40;1.55;;;;;;;8.20;62.68;96624.50;4965985;28;20553;-74
2024/03/29 01:46:08;;;;;;;2.13;1.60;;;;;;;8.08;62.59;96592.59;4963406;28;20030;-75
2024/03/29 01:48:34;;;;;;;2.38;1.50;;;;;;;8.07;62.54;96580.28;4951359;28;20043;-77
2024/03/29 01:51:00;;;;;;;2.65;1.30;;;;;;;8.35;62.40;96595.84;4962849;28;20023;-79
2024/03/29 01:53:30;;;;;;;2.45;1.40;;;;;;;8.19;62.36;96574.66;4971465;28;20581;-76
2024/03/29 01:55:56;;;;;;;2.22;1.50;;;;;;;8.34;62.13;96596.91;4970194;28;20039;-76
2024/03/29 01:58:22;;;;;;;2.47;1.40;;;;;;;8.27;61.96;96585.66;4963399;28;20036;-75
2024/03/29 02:00:55;;;;;;;2.40;1.30;;;;;;;8.26;62.15;96584.03;4948631;28;20030;-77
2024/03/29 02:03:22;;;;;;;2.17;1.40;;;;;;;8.31;61.83;96585.91;4957905;28;20049;-77
2024/03/29 02:05:51;;;;;;;1.58;1.33;;;;;;;8.47;62.11;96589.41;4953872;29;20132;-78
2024/03/29 02:08:17;;;;;;;1.92;1.40;;;;;;;8.43;62.20;96577.59;4955021;29;20478;-76
2024/03/29 02:10:48;;;;;;;1.85;1.30;;;;;;;8.38;61.13;96556.94;4958416;28;20057;-76
2024/03/29 02:13:15;;;;;;;3.42;1.33;;;;;;;8.42;61.34;96535.75;4959905;28;20062;-77
2024/03/29 02:15:40;;;;;;;2.22;1.40;;;;;;;8.19;61.64;96510.31;4965874;28;20089;-80
2024/03/29 02:18:07;;;;;;;1.75;1.30;;;;;;;8.40;61.12;96529.88;4952407;28;20070;-78
2024/03/29 02:20:33;;;;;;;2.85;1.35;;;;;;;8.27;61.18;96507.88;4976089;28;20023;-77
2024/03/29 02:23:03;;;;;;;3.08;1.35;;;;;;;8.17;60.99;96489.09;4970358;28;20038;-77
2024/03/29 02:25:29;;;;;;;1.60;1.30;;;;;;;8.60;61.44;96552.09;4965343;28;20080;-78
2024/03/29 02:27:54;;;;;;;1.63;1.13;;;;;;;8.28;60.77;96506.03;4972577;28;20060;-78
2024/03/29 02:30:20;;;;;;;1.60;1.30;;;;;;;8.66;60.15;96547.53;4979545;28;20043;-77
2024/03/29 02:32:46;;;;;;;1.63;1.13;;;;;;;8.69;60.62;96555.00;4952562;28;20114;-76
2024/03/29 02:35:11;;;;;;;1.40;1.15;;;;;;;8.79;59.85;96560.34;5021282;23;20128;-73
2024/03/29 02:37:37;;;;;;;3.45;2.80;;;;;;;8.73;60.05;96539.97;5016125;28;20120;-74
2024/03/29 02:40:03;;;;;;;2.70;2.40;;;;;;;8.91;59.99;96547.44;5016252;28;20045;-76
2024/03/29 02:42:29;;;;;;;2.17;1.63;;;;;;;8.73;59.77;96519.31;5032629;28;20045;-73
2024/03/29 02:44:55;;;;;;;2.38;1.80;;;;;;;8.87;59.93;96549.84;5023707;28;20037;-73
2024/03/29 02:47:21;;;;;;;2.53;1.60;;;;;;;8.85;59.55;96538.59;5033529;28;20029;-74
2024/03/29 02:49:46;;;;;;;1.48;1.23;;;;;;;8.98;59.56;96547.97;5031181;28;20048;-73
2024/03/29 02:52:11;;;;;;;2.83;1.70;;;;;;;8.94;59.40;96541.50;5025187;28;20433;-74
2024/03/29 02:54:37;;;;;;;2.85;1.17;;;;;;;8.92;59.86;96533.72;5065709;28;20061;-76
2024/03/29 02:57:02;;;;;;;1.83;1.25;;;;;;;8.96;59.28;96548.22;5011201;28;20036;-74
2024/03/29 02:59:28;;;;;;;3.17;1.20;;;;;;;9.07;59.16;96545.50;5024335;28;20100;-75
2024/03/29 03:01:53;;;;;;;1.88;1.15;;;;;;;9.15;58.83;96553.78;5026714;28;20115;-76
2024/03/29 03:04:18;;;;;;;1.42;1.00;;;;;;;9.13;58.28;96549.75;5024133;28;20501;-76
2024/03/29 03:06:44;;;;;;;1.92;1.20;;;;;;;9.11;58.11;96541.97;5024941;28;20404;-76
2024/03/29 03:11:53;;;;;;;1.35;1.10;;;;;;;9.13;58.95;96534.44;5032675;28;20500;-75
2024/03/29 03:14:19;;;;;;;2.60;1.17;;;;;;;9.17;58.15;96535.50;5049371;28;20031;-76
2024/03/29 03:16:44;;;;;;;2.33;1.77;;;;;;;9.25;58.80;96552.94;5040190;28;20037;-76
2024/03/29 03:19:09;;;;;;;2.58;1.05;;;;;;;9.23;57.87;96549.72;4986387;28;20029;-76
2024/03/29 03:21:35;;;;;;;3.65;1.40;;;;;;;9.34;57.86;96557.44;5007517;28;20492;-76
2024/03/29 03:24:01;;;;;;;3.45;1.08;;;;;;;9.24;57.87;96551.34;5012163;28;20100;-75
2024/03/29 03:26:26;;;;;;;1.42;1.10;;;;;;;9.22;58.12;96540.84;5023722;28;20520;-74
2024/03/29 03:28:51;;;;;;;2.22;1.02;;;;;;;9.33;58.23;96550.47;5062793;28;20515;-74
2024/03/29 03:31:17;;;;;;;2.30;1.10;;;;;;;9.22;58.39;96542.75;5029212;28;20040;-74
2024/03/29 03:33:42;;;;;;;1.33;1.17;;;;;;;9.16;58.01;96523.16;5003993;28;20045;-75
2024/03/29 03:36:07;;;;;;;2.85;1.63;;;;;;;9.25;57.68;96512.63;5021222;28;20044;-73
2024/03/29 03:38:34;;;;;;;1.75;1.50;;;;;;;9.37;57.32;96527.34;5026923;28;20053;-74
2024/03/29 03:41:00;;;;;;;1.38;1.10;;;;;;;9.30;56.64;96520.66;4997215;28;20107;-74
2024/03/29 03:43:25;;;;;;;1.48;1.10;;;;;;;9.30;56.82;96508.06;5041038;28;20476;-74
2024/03/29 03:45:50;;;;;;;1.85;1.30;;;;;;;9.33;56.57;96518.25;5012724;28;20124;-74
2024/03/29 03:48:16;;;;;;;1.35;0.95;;;;;;;9.39;56.78;96530.56;5036242;28;20135;-73
2024/03/29 03:50:41;;;;;;;2.17;1.17;;;;;;;9.40;56.91;96532.19;5056505;28;20033;-73
2024/03/29 03:53:07;;;;;;;1.70;1.33;;;;;;;9.50;57.36;96553.59;5056496;28;20056;-73
2024/03/29 03:55:37;;;;;;;1.80;1.00;;;;;;;9.53;57.25;96552.25;5032590;28;20034;-74
2024/03/29 03:58:03;;;;;;;1.83;1.25;;;;;;;9.47;56.65;96539.94;5032173;28;20400;-73
2024/03/29 04:00:28;;;;;;;1.77;1.25;;;;;;;9.54;57.18;96551.16;5023089;28;20032;-75
2024/03/29 04:02:53;;;;;;;1.33;1.10;;;;;;;9.48;56.99;96530.78;5024584;28;20033;-74
2024/03/29 04:05:19;;;;;;;1.98;1.00;;;;;;;9.52;57.18;96543.38;4997356;28;20507;-75
2024/03/29 04:07:45;;;;;;;1.88;1.10;;;;;;;9.52;57.31;96542.59;5029983;28;20033;-75
2024/03/29 04:10:10;;;;;;;1.73;1.10;;;;;;;9.50;57.01;96547.41;4998238;28;20028;-78
2024/03/29 04:12:36;;;;;;;3.90;1.10;;;;;;;9.48;56.94;96545.00;5016556;28;20037;-73
2024/03/29 04:15:02;;;;;;;1.73;1.27;;;;;;;9.41;57.31;96531.09;5003204;28;20053;-75
2024/03/29 04:17:30;;;;;;;1.45;1.13;;;;;;;9.50;57.31;96553.59;5012977;28;20041;-75
2024/03/29 04:19:55;;;;;;;2.30;1.50;;;;;;;9.47;57.52;96540.75;5009250;28;20022;-74
2024/03/29 04:22:21;;;;;;;5.13;1.40;;;;;;;9.37;57.48;96530.03;5032613;28;20052;-75
2024/03/29 04:24:46;;;;;;;2.92;1.27;;;;;;;9.49;57.87;96551.19;5032050;28;20069;-75
2024/03/29 04:27:11;;;;;;;2.97;1.40;;;;;;;9.40;57.08;96529.50;5040345;28;20037;-76
2024/03/29 04:29:37;;;;;;;3.83;1.30;;;;;;;9.37;57.43;96526.53;5010481;28;20045;-76
2024/03/29 04:32:05;;;;;;;1.65;1.20;;;;;;;9.42;57.36;96532.69;5032364;28;20041;-76
2024/03/29 04:34:30;;;;;;;2.55;1.40;;;;;;;9.42;57.46;96543.44;5011548;28;20160;-76
2024/03/29 04:36:55;;;;;;;3.00;1.30;;;;;;;9.47;57.20;96540.75;5044522;28;20060;-75
2024/03/29 04:39:22;;;;;;;1.63;1.30;;;;;;;9.53;57.15;96547.69;5022469;28;20369;-75
2024/03/29 04:41:47;;;;;;;1.52;1.38;;;;;;;9.49;57.77;96548.50;4995530;28;20166;-75
2024/03/29 04:44:13;;;;;;;1.48;1.05;;;;;;;9.48;57.40;96568.38;5009683;28;20104;-77
2024/03/29 04:46:39;;;;;;;2.50;1.48;;;;;;;9.47;57.56;96551.47;5056984;28;20701;-77
2024/03/29 04:49:09;;;;;;;2.03;1.30;;;;;;;9.47;57.01;96572.97;5011896;28;20072;-76
2024/03/29 04:51:39;;;;;;;1.98;1.33;;;;;;;9.42;56.95;96556.88;5002786;28;20037;-76
2024/03/29 04:54:04;;;;;;;2.25;1.40;;;;;;;9.49;56.87;96565.44;5002650;28;20077;-75
2024/03/29 04:56:32;;;;;;;1.60;1.30;;;;;;;9.52;56.72;96575.63;5027211;28;20093;-76
2024/03/29 04:58:58;;;;;;;3.92;1.80;;;;;;;9.38;55.98;96558.50;4997157;28;20438;-75
2024/03/29 05:01:30;;;;;;;1.85;1.60;;;;;;;9.57;56.02;96578.28;5005631;28;20112;-75
2024/03/29 05:04:00;;;;;;;2.20;1.60;;;;;;;9.61;55.85;96590.06;4995810;28;20505;-75
2024/03/29 05:06:26;;;;;;;2.45;1.20;;;;;;;9.58;55.73;96584.47;5022053;28;20052;-76
2024/03/29 05:08:51;;;;;;;2.00;1.20;;;;;;;9.60;56.48;96587.69;5055603;28;20072;-75
2024/03/29 05:11:16;;;;;;;2.47;1.38;;;;;;;9.52;56.35;96564.88;5033278;28;20017;-76
2024/03/29 05:13:42;;;;;;;1.63;1.20;;;;;;;9.63;55.68;96592.50;5013043;28;20037;-75
2024/03/29 05:16:07;;;;;;;3.28;1.48;;;;;;;9.65;56.04;96585.78;5023524;28;20032;-77
2024/03/29 05:19:02;;;;;;;1.30;1.20;;;;;;;9.58;56.15;96609.47;5023475;28;20041;-77
2024/03/29 05:21:29;;;;;;;2.97;1.40;;;;;;;9.55;56.23;96607.31;4993803;28;20040;-76
2024/03/29 05:23:55;;;;;;;1.58;1.10;;;;;;;9.59;57.09;96640.63;5022949;28;20365;-75
2024/03/29 05:26:20;;;;;;;1.77;1.20;;;;;;;9.39;56.67;96627.28;5007978;28;20034;-76
2024/03/29 05:28:45;;;;;;;1.48;1.20;;;;;;;9.65;56.74;96644.91;5023243;28;20022;-76
2024/03/29 05:31:16;;;;;;;1.65;1.27;;;;;;;9.22;57.90;96656.34;5006073;28;20034;-76
2024/03/29 05:33:56;;;;;;;2.60;1.70;;;;;;;9.32;58.40;96653.63;5002915;28;20069;-79
2024/03/29 05:36:33;;;;;;;2.58;1.90;;;;;;;9.37;58.13;96642.88;4985277;28;20449;-79
2024/03/29 05:39:00;;;;;;;3.92;3.10;;;;;;;9.40;58.75;96646.91;5002043;28;20034;-80
2024/03/29 05:41:26;;;;;;;2.22;1.40;;;;;;;9.40;58.25;96679.13;4980954;28;20026;-75
2024/03/29 05:43:51;;;;;;;2.13;1.90;;;;;;;9.31;57.37;96627.84;5045010;28;20404;-77
2024/03/29 05:46:17;;;;;;;2.25;1.42;;;;;;;9.34;57.41;96642.59;5036565;28;20105;-77
2024/03/29 05:48:43;;;;;;;2.65;1.40;;;;;;;9.40;57.44;96674.56;5046515;28;20046;-77
2024/03/29 05:51:08;;;;;;;3.08;1.65;;;;;;;9.52;56.51;96645.47;5030352;28;20031;-77
2024/03/29 05:53:33;;;;;;;1.50;1.40;;;;;;;9.39;57.69;96646.09;4999326;28;20037;-76
2024/03/29 05:55:59;;;;;;;2.05;1.30;;;;;;;9.35;58.72;96650.41;5042652;28;20033;-76
2024/03/29 05:58:24;;;;;;;2.10;1.30;;;;;;;9.45;58.02;96652.25;5043930;28;20032;-77
2024/03/29 06:00:50;;;;;;;2.25;1.80;;;;;;;9.51;58.25;96670.75;5051010;28;20023;-77
2024/03/29 06:03:15;;;;;;;2.35;1.33;;;;;;;9.34;57.90;96659.53;5037039;28;20461;-77
2024/03/29 06:05:41;;;;;;;2.42;1.70;;;;;;;9.48;57.73;96682.06;5059109;28;20084;-77
2024/03/29 06:08:07;;;;;;;3.40;1.50;;;;;;;9.33;58.43;96668.69;5046593;28;20071;-77
2024/03/29 06:10:33;;;;;;;2.97;1.50;;;;;;;9.31;59.75;96657.38;5026618;28;20036;-78
2024/03/29 06:13:06;;;;;;;2.50;1.63;;;;;;;9.33;60.25;96684.00;5029015;28;20477;-76
2024/03/29 06:18:18;;;;;;;2.75;1.80;;;;;;;9.37;61.53;96711.91;5025809;28;20437;-75
2024/03/29 06:20:44;;;;;;;4.28;2.40;;;;;;;9.14;62.01;96691.81;5032096;28;20026;-75
2024/03/29 06:23:09;;;;;;;3.45;2.30;;;;;;;9.18;62.40;96714.38;5021759;28;20403;-76
2024/03/29 06:25:34;;;;;;;5.47;2.58;;;;;;;9.25;63.36;96717.59;5013358;28;20021;-76
2024/03/29 06:28:00;;;;;;;2.85;2.65;;;;;;;9.20;63.67;96696.09;5030718;28;20460;-75
2024/03/29 06:30:25;;;;;;;2.25;2.03;;;;;;;9.15;64.02;96693.41;5013237;28;20045;-75
2024/03/29 06:32:51;;;;;;;1.80;1.70;;;;;;;9.19;64.65;96693.69;4992256;28;20469;-75
2024/03/29 06:35:16;;;;;;;3.33;2.40;;;;;;;9.19;64.63;96683.75;5032569;28;20487;-76
2024/03/29 06:37:42;;;;;;;3.63;2.50;;;;;;;9.25;64.68;96645.06;5045644;28;20029;-76
2024/03/29 06:40:08;;;;;;;5.88;4.90;;;;;;;9.29;64.34;96656.84;5042188;28;20021;-76
2024/03/29 06:42:33;;;;;;;28.30;22.55;;;;;;;9.31;64.54;96661.97;5013179;28;20045;-75
2024/03/29 06:44:59;;;;;;;5.65;4.07;;;;;;;9.21;65.12;96646.69;5031942;28;20060;-75
2024/03/29 06:47:25;;;;;;;2.83;1.90;;;;;;;9.27;64.46;96640.22;5030812;28;20041;-76
2024/03/29 06:49:50;;;;;;;2.58;1.45;;;;;;;9.40;64.37;96615.47;5031039;28;20109;-75
2024/03/29 06:52:16;;;;;;;1.88;1.65;;;;;;;9.29;64.01;96613.88;5025834;28;20064;-76
2024/03/29 06:54:41;;;;;;;1.95;1.75;;;;;;;9.44;63.98;96639.88;5057929;28;20029;-76
2024/03/29 06:57:09;;;;;;;1.98;1.70;;;;;;;9.42;63.20;96639.34;5014843;28;20082;-76
2024/03/29 06:59:34;;;;;;;2.45;2.25;;;;;;;9.48;62.61;96622.94;5042079;28;20021;-75
2024/03/29 07:01:59;;;;;;;2.30;2.10;;;;;;;9.53;62.44;96614.84;5026273;28;20085;-76
2024/03/29 07:04:25;;;;;;;1.70;1.60;;;;;;;9.61;61.82;96614.25;5011205;28;20025;-76
2024/03/29 07:06:51;;;;;;;2.65;2.05;;;;;;;9.64;61.56;96616.41;5025646;28;20103;-75
2024/03/29 07:09:21;;;;;;;2.63;1.65;;;;;;;9.66;62.11;96614.25;5044115;28;20025;-75
2024/03/29 07:11:48;;;;;;;4.65;4.03;;;;;;;9.65;61.54;96612.66;5012571;28;20532;-76
2024/03/29 07:14:16;;;;;;;2.55;1.83;;;;;;;9.55;61.43;96583.13;5061581;28;20044;-76
2024/03/29 07:16:45;;;;;;;1.85;1.52;;;;;;;9.71;61.48;96603.47;5060859;28;20051;-77
2024/03/29 07:19:12;;;;;;;2.03;1.30;;;;;;;9.72;61.00;96593.53;4995460;28;20025;-77
2024/03/29 07:21:44;;;;;;;2.45;1.52;;;;;;;9.82;60.73;96600.72;5012220;28;20098;-76
2024/03/29 07:24:10;;;;;;;2.10;1.85;;;;;;;9.81;60.55;96597.22;5046574;28;20040;-76
2024/03/29 07:26:35;;;;;;;4.07;2.90;;;;;;;9.81;61.31;96583.78;5036968;28;20400;-76
2024/03/29 07:29:01;;;;;;;2.65;2.20;;;;;;;9.86;62.46;96585.63;5011474;28;20041;-76
2024/03/29 07:31:26;;;;;;;2.15;1.95;;;;;;;9.94;61.92;96587.75;5026600;28;20125;-76
2024/03/29 07:33:52;;;;;;;3.20;2.20;;;;;;;9.57;61.76;96535.28;5046552;28;20041;-76
2024/03/29 07:36:17;;;;;;;2.00;1.63;;;;;;;9.93;61.67;96583.44;5032784;28;20029;-76
2024/03/29 07:38:43;;;;;;;2.90;2.00;;;;;;;10.08;61.32;96605.63;4993463;28;20044;-77
2024/03/29 07:41:10;;;;;;;2.60;2.40;;;;;;;10.05;61.14;96597.34;5015696;28;20047;-77
2024/03/29 07:43:39;;;;;;;3.08;1.90;;;;;;;10.25;60.20;96610.66;5043015;28;20036;-77
2024/03/29 07:46:08;;;;;;;2.88;1.98;;;;;;;10.39;59.96;96628.59;5037514;28;20028;-77
2024/03/29 07:48:34;;;;;;;1.50;1.23;;;;;;;10.34;59.94;96592.81;5024236;28;20052;-77
2024/03/29 07:50:59;;;;;;;2.00;1.80;;;;;;;10.51;59.35;96595.91;5017578;28;20158;-77
2024/03/29 07:53:25;;;;;;;2.25;1.70;;;;;;;10.66;59.10;96595.78;5022667;28;20045;-77
2024/03/29 07:55:50;;;;;;;3.13;1.40;;;;;;;10.80;58.87;96591.34;5058977;28;20025;-76
2024/03/29 07:58:16;;;;;;;1.98;1.50;;;;;;;10.84;58.52;96587.00;5007031;28;20042;-76
2024/03/29 08:00:42;;;;;;;3.72;2.80;;;;;;;11.11;57.40;96611.47;5056512;28;20124;-76
2024/03/29 08:03:07;;;;;;;2.42;1.75;;;;;;;11.04;57.46;96597.53;5026727;28;20048;-77
2024/03/29 08:05:33;;;;;;;2.35;1.55;;;;;;;11.16;57.35;96605.22;5007717;28;20028;-77
2024/03/29 08:07:59;;;;;;;2.30;1.40;;;;;;;11.27;57.68;96595.13;5051033;28;20151;-76
2024/03/29 08:10:24;;;;;;;1.80;1.50;;;;;;;11.34;57.67;96595.59;5016681;28;20077;-77
2024/03/29 08:12:49;;;;;;;1.45;1.20;;;;;;;11.43;57.12;96600.06;5062455;28;20045;-76
2024/03/29 08:15:17;;;;;;;1.80;1.05;;;;;;;11.45;57.23;96605.16;4997594;28;20119;-77
2024/03/29 08:17:43;;;;;;;1.30;1.08;;;;;;;11.53;57.35;96599.09;5001262;28;20046;-75
2024/03/29 08:20:09;;;;;;;1.25;1.15;;;;;;;11.54;57.17;96592.63;5029091;28;20028;-75
2024/03/29 08:22:35;;;;;;;4.68;4.00;;;;;;;11.71;57.39;96595.69;5007867;28;20030;-77
2024/03/29 08:25:00;;;;;;;6.07;4.63;;;;;;;11.73;57.30;96588.09;5048820;28;20026;-76
2024/03/29 08:27:27;;;;;;;3.53;2.60;;;;;;;11.85;56.72;96590.34;4981276;28;20025;-76
2024/03/29 08:29:52;;;;;;;5.38;3.67;;;;;;;11.95;56.18;96574.03;5024306;28;20029;-76
2024/03/29 08:32:18;;;;;;;7.60;4.50;;;;;;;12.09;56.07;96580.31;5045919;28;20088;-77
2024/03/29 08:34:43;;;;;;;6.20;4.32;;;;;;;12.19;55.67;96591.72;5045791;28;20026;-75
2024/03/29 08:37:08;;;;;;;4.28;3.20;;;;;;;12.23;55.84;96581.13;5028643;28;20029;-77
2024/03/29 08:39:35;;;;;;;4.88;2.33;;;;;;;12.24;55.61;96578.16;5033126;22;20052;-78
2024/03/29 08:42:04;;;;;;;2.65;2.42;;;;;;;12.17;55.45;96556.13;5037109;28;20037;-78
2024/03/29 08:44:33;;;;;;;2.85;2.10;;;;;;;12.30;55.61;96570.75;5036372;28;20021;-78
2024/03/29 08:47:01;;;;;;;2.45;1.90;;;;;;;12.28;54.81;96571.06;5031817;28;20154;-78
2024/03/29 08:49:27;;;;;;;2.50;1.60;;;;;;;12.27;53.88;96566.78;5021413;28;20028;-78
2024/03/29 08:51:53;;;;;;;3.15;1.70;;;;;;;12.36;53.08;96567.72;5032016;28;20052;-77
2024/03/29 08:54:19;;;;;;;1.20;1.10;;;;;;;12.26;52.42;96561.66;5009717;28;20029;-78
2024/03/29 08:56:44;;;;;;;1.50;1.30;;;;;;;12.38;52.43;96568.22;5028580;28;20404;-78
2024/03/29 08:59:11;;;;;;;2.15;1.67;;;;;;;12.34;52.54;96547.50;5041184;28;20028;-78
2024/03/29 09:01:38;;;;;;;1.25;1.15;;;;;;;12.38;52.49;96551.19;5007444;28;20040;-78
2024/03/29 09:04:06;;;;;;;3.35;1.35;;;;;;;12.42;52.29;96563.81;5020383;28;20028;-77
2024/03/29 09:06:32;;;;;;;2.13;1.92;;;;;;;12.33;51.80;96541.28;5035543;28;20067;-78
2024/03/29 09:08:57;;;;;;;5.25;3.60;;;;;;;12.26;51.76;96532.78;5033653;28;20464;-77
2024/03/29 09:11:23;;;;;;;4.30;2.60;;;;;;;12.48;52.64;96565.31;5002083;28;20136;-78
2024/03/29 09:13:49;;;;;;;3.05;2.35;;;;;;;12.44;51.80;96556.22;5009847;28;20115;-78
2024/03/29 09:16:14;;;;;;;2.70;1.95;;;;;;;12.51;51.23;96544.25;5000227;28;20061;-78
2024/03/29 09:18:40;;;;;;;2.50;1.35;;;;;;;12.41;50.95;96546.03;5004705;28;20024;-78
2024/03/29 09:21:06;;;;;;;2.97;1.35;;;;;;;12.38;50.18;96554.72;5006435;28;20032;-79
2024/03/29 09:23:32;;;;;;;1.05;0.80;;;;;;;12.43;51.33;96560.03;5035562;28;20021;-78
2024/03/29 09:25:58;;;;;;;2.03;1.30;;;;;;;12.44;51.42;96572.41;5015778;28;20037;-78
2024/03/29 09:28:24;;;;;;;1.23;0.98;;;;;;;12.34;51.49;96572.59;5045153;28;20151;-78
2024/03/29 09:30:50;;;;;;;1.20;0.90;;;;;;;12.34;51.45;96583.41;5039669;28;20401;-78
2024/03/29 09:33:15;;;;;;;1.90;1.10;;;;;;;12.28;52.19;96595.34;5023796;28;20028;-78
2024/03/29 09:35:41;;;;;;;1.25;1.05;;;;;;;12.17;52.81;96612.00;5027638;28;20400;-77
2024/03/29 09:38:06;;;;;;;1.52;1.20;;;;;;;12.26;54.06;96634.53;5034795;28;20033;-78
2024/03/29 09:40:32;;;;;;;1.17;1.00;;;;;;;12.16;54.19;96635.47;5025858;28;20540;-77
2024/03/29 09:43:02;;;;;;;1.15;1.00;;;;;;;12.23;55.73;96668.31;5036764;28;20120;-77
2024/03/29 09:45:32;;;;;;;3.97;1.55;;;;;;;12.00;57.01;96666.47;5022660;28;20508;-78
2024/03/29 09:48:01;;;;;;;4.32;1.55;;;;;;;12.01;58.60;96673.50;5043146;28;20123;-77
2024/03/29 09:50:26;;;;;;;3.33;1.55;;;;;;;11.75;59.95;96669.50;5013865;28;20018;-77
2024/03/29 09:52:52;;;;;;;2.42;1.45;;;;;;;11.70;60.75;96680.34;5019940;28;20127;-77
2024/03/29 09:55:19;;;;;;;2.08;1.50;;;;;;;11.58;61.14;96682.63;5032569;28;20025;-77
2024/03/29 09:57:45;;;;;;;3.17;1.80;;;;;;;11.61;62.59;96706.31;5017946;28;20033;-77
2024/03/29 10:00:11;;;;;;;2.42;1.50;;;;;;;11.40;64.16;96696.84;5031518;28;20480;-76
2024/03/29 10:02:37;;;;;;;3.47;1.75;;;;;;;11.37;64.89;96713.59;5019584;28;20040;-77
2024/03/29 10:05:07;;;;;;;4.00;2.13;;;;;;;11.26;66.80;96723.69;5036490;28;20111;-77
2024/03/29 10:07:34;;;;;;;3.47;2.30;;;;;;;11.19;67.29;96727.78;5019729;28;20424;-76
2024/03/29 10:10:00;;;;;;;2.22;1.70;;;;;;;11.16;67.72;96726.47;5002726;28;20028;-78
2024/03/29 10:12:27;;;;;;;4.10;3.08;;;;;;;11.18;68.64;96731.59;5010004;28;20037;-77
2024/03/29 10:14:54;;;;;;;4.53;2.60;;;;;;;10.95;69.52;96700.78;5021434;28;20071;-77
2024/03/29 10:17:20;;;;;;;3.92;2.90;;;;;;;11.03;70.22;96737.91;5016642;28;20403;-77
2024/03/29 10:19:46;;;;;;;6.60;2.80;;;;;;;10.85;70.95;96717.84;5020079;28;20021;-77
2024/03/29 10:22:12;;;;;;;2.95;2.28;;;;;;;10.89;72.06;96745.84;5021397;28;20531;-77
2024/03/29 10:24:38;;;;;;;3.20;2.30;;;;;;;10.78;73.67;96744.28;5037587;28;20052;-77
2024/03/29 10:27:04;;;;;;;3.75;2.10;;;;;;;10.87;74.30;96748.00;5021814;28;20122;-77
2024/03/29 10:29:30;;;;;;;4.30;3.35;;;;;;;10.71;75.07;96727.66;5024088;28;20026;-77
2024/03/29 10:31:56;;;;;;;3.38;2.65;;;;;;;10.55;75.77;96718.06;5037089;28;20086;-77
2024/03/29 10:34:23;;;;;;;4.82;2.55;;;;;;;10.66;75.44;96730.41;5020612;28;20036;-77
2024/03/29 10:36:50;;;;;;;2.72;2.50;;;;;;;10.51;76.18;96700.88;5019808;28;20123;-77
2024/03/29 10:39:16;;;;;;;3.80;2.70;;;;;;;10.74;76.81;96732.47;5037061;28;20097;-77
2024/03/29 10:41:45;;;;;;;4.15;2.95;;;;;;;10.71;76.88;96721.47;5020778;28;20475;-77
2024/03/29 10:44:12;;;;;;;3.78;3.05;;;;;;;10.83;77.20;96714.63;5002460;28;20024;-78
2024/03/29 10:46:39;;;;;;;3.67;2.50;;;;;;;10.59;76.88;96659.94;5020310;28;20045;-77
2024/03/29 10:49:09;;;;;;;2.50;2.15;;;;;;;11.15;76.73;96710.59;5021668;28;20112;-77
2024/03/29 10:51:37;;;;;;;2.50;2.00;;;;;;;11.27;76.98;96681.38;5004693;28;20049;-77
2024/03/29 10:54:04;;;;;;;2.10;1.85;;;;;;;11.32;77.28;96689.41;5020175;28;20024;-76
2024/03/29 10:56:30;;;;;;;2.00;1.80;;;;;;;11.33;76.93;96674.81;5003789;28;20029;-77
2024/03/29 10:59:00;;;;;;;2.85;2.10;;;;;;;11.55;76.46;96688.63;5019893;28;20035;-77
2024/03/29 11:01:26;;;;;;;3.55;2.72;;;;;;;11.57;76.46;96691.81;5021469;28;20163;-77
2024/03/29 11:03:55;;;;;;;4.53;3.35;;;;;;;11.78;76.32;96688.59;5003512;28;20136;-77
2024/03/29 11:06:24;;;;;;;3.45;2.78;;;;;;;11.80;75.93;96669.44;5026662;28;20032;-78
2024/03/29 11:08:51;;;;;;;3.40;2.42;;;;;;;11.81;75.53;96659.47;5025960;28;20568;-78
2024/03/29 11:11:17;;;;;;;2.33;2.08;;;;;;;11.96;75.64;96657.38;5031834;28;20409;-77
2024/03/29 11:14:02;;;;;;;2.83;2.40;;;;;;;11.97;75.38;96658.94;5023233;28;20047;-77
2024/03/29 11:16:29;;;;;;;3.40;2.55;;;;;;;12.16;74.35;96667.88;5025863;28;20524;-78
2024/03/29 11:18:54;;;;;;;2.60;2.00;;;;;;;12.07;74.59;96664.22;5007407;28;20033;-77
2024/03/29 11:21:20;;;;;;;2.38;1.80;;;;;;;12.01;74.63;96653.78;5037190;28;20517;-78
2024/03/29 11:23:50;;;;;;;2.95;1.20;;;;;;;12.14;73.84;96616.09;5013144;28;20026;-77
2024/03/29 11:26:16;;;;;;;1.42;1.30;;;;;;;12.28;73.98;96618.84;5042635;28;20460;-77
2024/03/29 11:28:48;;;;;;;1.75;1.42;;;;;;;12.33;74.27;96613.38;5047044;28;20017;-78
2024/03/29 11:31:14;;;;;;;2.55;1.30;;;;;;;12.29;73.88;96596.16;5028690;28;20039;-78
2024/03/29 11:33:48;;;;;;;2.85;1.52;;;;;;;12.49;74.06;96629.03;5043304;28;20025;-78
2024/03/29 11:36:18;;;;;;;1.38;1.15;;;;;;;12.36;74.08;96608.19;5061895;28;20393;-78
2024/03/29 11:38:48;;;;;;;1.50;1.40;;;;;;;12.48;73.70;96632.81;5022902;28;20040;-78
2024/03/29 11:41:16;;;;;;;1.67;1.58;;;;;;;12.47;73.11;96619.63;5025599;28;20034;-78